sensor_id;sensor_type;location;lat;lon;timestamp;pressure;altitude;pressure_sealevel;temperature;humidity
78229;BME280;74448;49.082;9.152;2023-12-07T00:02:23;99683.66;;;3.81;63.18
78229;BME280;74448;49.082;9.152;2023-12-07T00:04:50;99689.75;;;3.81;63.25
78229;BME280;74448;49.082;9.152;2023-12-07T00:07:16;99678.75;;;3.73;63.06
78229;BME280;74448;49.082;9.152;2023-12-07T00:09:43;99684.75;;;3.75;63.36
78229;BME280;74448;49.082;9.152;2023-12-07T00:12:10;99682.16;;;3.75;63.46
78229;BME280;74448;49.082;9.152;2023-12-07T00:14:36;99690.63;;;3.80;63.51
78229;BME280;74448;49.082;9.152;2023-12-07T00:17:03;99687.16;;;3.80;63.13
78229;BME280;74448;49.082;9.152;2023-12-07T00:19:29;99684.75;;;3.75;63.41
78229;BME280;74448;49.082;9.152;2023-12-07T00:21:56;99688.09;;;3.79;63.14
78229;BME280;74448;49.082;9.152;2023-12-07T00:24:23;99691.69;;;3.76;63.43
78229;BME280;74448;49.082;9.152;2023-12-07T00:26:49;99682.94;;;3.77;63.26
78229;BME280;74448;49.082;9.152;2023-12-07T00:29:16;99665.94;;;3.67;63.40
78229;BME280;74448;49.082;9.152;2023-12-07T00:31:43;99690.78;;;3.77;63.23
78229;BME280;74448;49.082;9.152;2023-12-07T00:34:10;99693.44;;;3.75;63.22
78229;BME280;74448;49.082;9.152;2023-12-07T00:36:37;99699.47;;;3.78;63.58
78229;BME280;74448;49.082;9.152;2023-12-07T00:39:06;99692.69;;;3.73;63.27
78229;BME280;74448;49.082;9.152;2023-12-07T00:41:33;99711.63;;;3.79;63.43
78229;BME280;74448;49.082;9.152;2023-12-07T00:43:59;99701.25;;;3.77;63.36
78229;BME280;74448;49.082;9.152;2023-12-07T00:46:29;99684.31;;;3.65;63.56
78229;BME280;74448;49.082;9.152;2023-12-07T00:48:55;99683.47;;;3.65;62.88
78229;BME280;74448;49.082;9.152;2023-12-07T00:51:22;99703.84;;;3.77;63.61
78229;BME280;74448;49.082;9.152;2023-12-07T00:53:49;99702.13;;;3.76;63.34
78229;BME280;74448;49.082;9.152;2023-12-07T00:56:15;99704.09;;;3.71;63.57
78229;BME280;74448;49.082;9.152;2023-12-07T00:58:42;99714.31;;;3.77;63.46
78229;BME280;74448;49.082;9.152;2023-12-07T01:01:08;99697.50;;;3.62;63.33
78229;BME280;74448;49.082;9.152;2023-12-07T01:03:35;99710.91;;;3.75;63.40
78229;BME280;74448;49.082;9.152;2023-12-07T01:06:02;99722.19;;;3.75;63.46
78229;BME280;74448;49.082;9.152;2023-12-07T01:08:29;99708.47;;;3.70;63.44
78229;BME280;74448;49.082;9.152;2023-12-07T01:10:56;99718.75;;;3.75;63.20
78229;BME280;74448;49.082;9.152;2023-12-07T01:13:23;99719.78;;;3.71;63.33
78229;BME280;74448;49.082;9.152;2023-12-07T01:15:50;99724.91;;;3.74;63.41
78229;BME280;74448;49.082;9.152;2023-12-07T01:18:17;99735.28;;;3.75;63.50
78229;BME280;74448;49.082;9.152;2023-12-07T01:20:43;99743.19;;;3.74;63.11
78229;BME280;74448;49.082;9.152;2023-12-07T01:23:10;99734.50;;;3.73;63.24
78229;BME280;74448;49.082;9.152;2023-12-07T01:25:40;99736.28;;;3.73;63.28
78229;BME280;74448;49.082;9.152;2023-12-07T01:28:07;99720.25;;;3.60;63.35
78229;BME280;74448;49.082;9.152;2023-12-07T01:30:34;99737.16;;;3.72;63.50
78229;BME280;74448;49.082;9.152;2023-12-07T01:33:00;99740.66;;;3.72;63.51
78229;BME280;74448;49.082;9.152;2023-12-07T01:35:27;99734.69;;;3.69;63.29
78229;BME280;74448;49.082;9.152;2023-12-07T01:37:55;99731.47;;;3.62;63.66
78229;BME280;74448;49.082;9.152;2023-12-07T01:40:21;99744.13;;;3.73;63.42
78229;BME280;74448;49.082;9.152;2023-12-07T01:42:50;99745.88;;;3.72;63.56
78229;BME280;74448;49.082;9.152;2023-12-07T01:45:17;99748.50;;;3.72;63.23
78229;BME280;74448;49.082;9.152;2023-12-07T01:47:44;99746.06;;;3.68;63.39
78229;BME280;74448;49.082;9.152;2023-12-07T01:50:12;99747.63;;;3.72;63.45
78229;BME280;74448;49.082;9.152;2023-12-07T01:52:47;99745.00;;;3.72;63.55
78229;BME280;74448;49.082;9.152;2023-12-07T01:55:14;99734.81;;;3.66;63.45
78229;BME280;74448;49.082;9.152;2023-12-07T01:57:43;99749.47;;;3.70;63.42
78229;BME280;74448;49.082;9.152;2023-12-07T02:00:14;99748.53;;;3.71;63.37
78229;BME280;74448;49.082;9.152;2023-12-07T02:02:41;99749.47;;;3.70;63.35
78229;BME280;74448;49.082;9.152;2023-12-07T02:05:09;99754.69;;;3.70;63.44
78229;BME280;74448;49.082;9.152;2023-12-07T02:07:36;99746.94;;;3.68;63.43
78229;BME280;74448;49.082;9.152;2023-12-07T02:10:03;99755.53;;;3.70;63.51
78229;BME280;74448;49.082;9.152;2023-12-07T02:12:30;99752.19;;;3.67;63.16
78229;BME280;74448;49.082;9.152;2023-12-07T02:14:57;99751.31;;;3.68;63.32
78229;BME280;74448;49.082;9.152;2023-12-07T02:17:27;99750.38;;;3.69;63.35
78229;BME280;74448;49.082;9.152;2023-12-07T02:21:01;99755.63;;;3.69;63.36
78229;BME280;74448;49.082;9.152;2023-12-07T02:22:56;99753.97;;;3.66;63.72
78229;BME280;74448;49.082;9.152;2023-12-07T02:25:36;99747.81;;;3.67;63.29
78229;BME280;74448;49.082;9.152;2023-12-07T02:28:04;99746.97;;;3.67;63.35
78229;BME280;74448;49.082;9.152;2023-12-07T02:30:30;99740.16;;;3.63;63.11
78229;BME280;74448;49.082;9.152;2023-12-07T02:32:57;99738.56;;;3.60;63.38
78229;BME280;74448;49.082;9.152;2023-12-07T02:35:25;99734.22;;;3.59;63.37
78229;BME280;74448;49.082;9.152;2023-12-07T02:37:52;99742.84;;;3.61;63.55
78229;BME280;74448;49.082;9.152;2023-12-07T02:40:24;99749.59;;;3.67;63.27
78229;BME280;74448;49.082;9.152;2023-12-07T02:42:56;99752.34;;;3.64;63.35
78229;BME280;74448;49.082;9.152;2023-12-07T02:45:23;99749.06;;;3.59;63.39
78229;BME280;74448;49.082;9.152;2023-12-07T02:47:50;99748.81;;;3.65;63.47
78229;BME280;74448;49.082;9.152;2023-12-07T02:50:16;99736.81;;;3.59;62.88
78229;BME280;74448;49.082;9.152;2023-12-07T02:52:43;99752.28;;;3.65;63.34
78229;BME280;74448;49.082;9.152;2023-12-07T02:55:10;99739.44;;;3.59;63.51
78229;BME280;74448;49.082;9.152;2023-12-07T02:57:37;99744.50;;;3.64;63.64
78229;BME280;74448;49.082;9.152;2023-12-07T03:00:04;99746.19;;;3.65;63.31
78229;BME280;74448;49.082;9.152;2023-12-07T03:02:35;99747.25;;;3.61;63.37
78229;BME280;74448;49.082;9.152;2023-12-07T03:05:03;99752.38;;;3.62;63.67
78229;BME280;74448;49.082;9.152;2023-12-07T03:07:30;99759.47;;;3.60;63.37
78229;BME280;74448;49.082;9.152;2023-12-07T03:09:56;99748.00;;;3.63;63.16
78229;BME280;74448;49.082;9.152;2023-12-07T03:12:23;99738.13;;;3.49;63.37
78229;BME280;74448;49.082;9.152;2023-12-07T03:14:51;99764.63;;;3.62;63.56
78229;BME280;74448;49.082;9.152;2023-12-07T03:17:17;99761.16;;;3.61;63.45
78229;BME280;74448;49.082;9.152;2023-12-07T03:19:44;99749.19;;;3.56;63.51
78229;BME280;74448;49.082;9.152;2023-12-07T03:22:11;99759.38;;;3.62;63.37
78229;BME280;74448;49.082;9.152;2023-12-07T03:24:43;99744.81;;;3.56;63.34
78229;BME280;74448;49.082;9.152;2023-12-07T03:27:10;99753.38;;;3.60;63.20
78229;BME280;74448;49.082;9.152;2023-12-07T03:29:36;99746.59;;;3.56;63.21
78229;BME280;74448;49.082;9.152;2023-12-07T03:32:03;99762.97;;;3.59;63.38
78229;BME280;74448;49.082;9.152;2023-12-07T03:34:30;99762.13;;;3.59;63.68
78229;BME280;74448;49.082;9.152;2023-12-07T03:36:57;99763.84;;;3.60;63.52
78229;BME280;74448;49.082;9.152;2023-12-07T03:39:23;99746.03;;;3.47;63.41
78229;BME280;74448;49.082;9.152;2023-12-07T03:41:52;99769.06;;;3.60;63.15
78229;BME280;74448;49.082;9.152;2023-12-07T03:44:18;99761.22;;;3.60;63.45
78229;BME280;74448;49.082;9.152;2023-12-07T03:46:46;99765.56;;;3.59;63.36
78229;BME280;74448;49.082;9.152;2023-12-07T03:49:13;99771.72;;;3.58;63.53
78229;BME280;74448;49.082;9.152;2023-12-07T03:51:39;99767.41;;;3.57;63.51
78229;BME280;74448;49.082;9.152;2023-12-07T03:54:07;99769.31;;;3.54;63.36
78229;BME280;74448;49.082;9.152;2023-12-07T03:56:33;99766.75;;;3.52;63.47
78229;BME280;74448;49.082;9.152;2023-12-07T03:59:00;99776.38;;;3.52;63.28
78229;BME280;74448;49.082;9.152;2023-12-07T04:01:28;99760.91;;;3.45;63.36
78229;BME280;74448;49.082;9.152;2023-12-07T04:03:56;99786.63;;;3.56;63.60
78229;BME280;74448;49.082;9.152;2023-12-07T04:06:24;99783.22;;;3.54;63.24
78229;BME280;74448;49.082;9.152;2023-12-07T04:08:51;99761.03;;;3.42;63.45
78229;BME280;74448;49.082;9.152;2023-12-07T04:11:17;99780.69;;;3.53;63.51
78229;BME280;74448;49.082;9.152;2023-12-07T04:13:44;99792.75;;;3.55;63.29
78229;BME280;74448;49.082;9.152;2023-12-07T04:16:11;99797.13;;;3.55;63.23
78229;BME280;74448;49.082;9.152;2023-12-07T04:18:38;99791.97;;;3.53;63.46
78229;BME280;74448;49.082;9.152;2023-12-07T04:21:05;99786.81;;;3.52;62.95
78229;BME280;74448;49.082;9.152;2023-12-07T04:23:32;99786.75;;;3.53;63.64
78229;BME280;74448;49.082;9.152;2023-12-07T04:25:59;99793.75;;;3.53;63.40
78229;BME280;74448;49.082;9.152;2023-12-07T04:28:25;99781.81;;;3.45;63.40
78229;BME280;74448;49.082;9.152;2023-12-07T04:30:52;99785.25;;;3.47;63.24
78229;BME280;74448;49.082;9.152;2023-12-07T04:33:19;99797.31;;;3.50;63.51
78229;BME280;74448;49.082;9.152;2023-12-07T04:35:46;99795.63;;;3.49;63.69
78229;BME280;74448;49.082;9.152;2023-12-07T04:38:12;99792.28;;;3.45;63.40
78229;BME280;74448;49.082;9.152;2023-12-07T04:40:39;99795.75;;;3.46;63.44
78229;BME280;74448;49.082;9.152;2023-12-07T04:43:06;99798.34;;;3.46;63.46
78229;BME280;74448;49.082;9.152;2023-12-07T04:45:32;99811.38;;;3.47;63.54
78229;BME280;74448;49.082;9.152;2023-12-07T04:47:59;99784.50;;;3.44;63.53
78229;BME280;74448;49.082;9.152;2023-12-07T04:50:27;99802.69;;;3.47;63.71
78229;BME280;74448;49.082;9.152;2023-12-07T04:52:53;99780.50;;;3.35;63.38
78229;BME280;74448;49.082;9.152;2023-12-07T04:55:21;99793.97;;;3.46;63.49
78229;BME280;74448;49.082;9.152;2023-12-07T04:57:47;99799.19;;;3.46;63.37
78229;BME280;74448;49.082;9.152;2023-12-07T05:00:14;99800.13;;;3.45;63.23
78229;BME280;74448;49.082;9.152;2023-12-07T05:02:41;99804.44;;;3.46;63.37
78229;BME280;74448;49.082;9.152;2023-12-07T05:05:08;99802.84;;;3.42;63.50
78229;BME280;74448;49.082;9.152;2023-12-07T05:07:35;99807.09;;;3.45;63.46
78229;BME280;74448;49.082;9.152;2023-12-07T05:10:02;99803.75;;;3.41;63.44
78229;BME280;74448;49.082;9.152;2023-12-07T05:12:29;99806.38;;;3.41;63.56
78229;BME280;74448;49.082;9.152;2023-12-07T05:14:56;99804.56;;;3.43;63.47
78229;BME280;74448;49.082;9.152;2023-12-07T05:17:23;99809.91;;;3.40;63.36
78229;BME280;74448;49.082;9.152;2023-12-07T05:19:49;99816.78;;;3.43;63.42
78229;BME280;74448;49.082;9.152;2023-12-07T05:22:16;99804.75;;;3.39;63.58
78229;BME280;74448;49.082;9.152;2023-12-07T05:24:43;99805.53;;;3.41;64.04
78229;BME280;74448;49.082;9.152;2023-12-07T05:27:09;99807.38;;;3.39;63.47
78229;BME280;74448;49.082;9.152;2023-12-07T05:29:36;99811.72;;;3.38;63.34
78229;BME280;74448;49.082;9.152;2023-12-07T05:32:05;99815.13;;;3.40;63.68
78229;BME280;74448;49.082;9.152;2023-12-07T05:34:32;99815.13;;;3.40;63.53
78229;BME280;74448;49.082;9.152;2023-12-07T05:37:00;99778.38;;;3.23;63.32
78229;BME280;74448;49.082;9.152;2023-12-07T05:39:26;99819.56;;;3.38;63.66
78229;BME280;74448;49.082;9.152;2023-12-07T05:41:53;99813.66;;;3.33;63.70
78229;BME280;74448;49.082;9.152;2023-12-07T05:44:19;99812.81;;;3.33;63.41
78229;BME280;74448;49.082;9.152;2023-12-07T05:46:49;99824.78;;;3.38;63.68
78229;BME280;74448;49.082;9.152;2023-12-07T05:49:15;99814.47;;;3.35;63.75
78229;BME280;74448;49.082;9.152;2023-12-07T05:51:42;99820.47;;;3.37;63.47
78229;BME280;74448;49.082;9.152;2023-12-07T05:54:09;99819.69;;;3.35;63.65
78229;BME280;74448;49.082;9.152;2023-12-07T05:56:35;99813.66;;;3.33;63.41
78229;BME280;74448;49.082;9.152;2023-12-07T05:59:02;99811.00;;;3.35;63.33
78229;BME280;74448;49.082;9.152;2023-12-07T06:01:29;99819.63;;;3.37;63.83
78229;BME280;74448;49.082;9.152;2023-12-07T06:03:55;99797.59;;;3.22;63.40
78229;BME280;74448;49.082;9.152;2023-12-07T06:06:22;99818.88;;;3.33;63.63
78229;BME280;74448;49.082;9.152;2023-12-07T06:08:49;99822.34;;;3.34;63.74
78229;BME280;74448;49.082;9.152;2023-12-07T06:11:15;99818.22;;;3.28;63.44
78229;BME280;74448;49.082;9.152;2023-12-07T06:13:42;99810.38;;;3.28;63.65
78229;BME280;74448;49.082;9.152;2023-12-07T06:16:12;99831.19;;;3.31;63.71
78229;BME280;74448;49.082;9.152;2023-12-07T06:18:40;99831.09;;;3.33;63.47
78229;BME280;74448;49.082;9.152;2023-12-07T06:21:07;99827.66;;;3.32;63.67
78229;BME280;74448;49.082;9.152;2023-12-07T06:23:33;99815.72;;;3.25;63.71
78229;BME280;74448;49.082;9.152;2023-12-07T06:26:01;99824.22;;;3.30;63.70
78229;BME280;74448;49.082;9.152;2023-12-07T06:28:28;99822.53;;;3.29;63.64
78229;BME280;74448;49.082;9.152;2023-12-07T06:30:55;99825.16;;;3.29;63.53
78229;BME280;74448;49.082;9.152;2023-12-07T06:33:23;99820.94;;;3.25;63.61
78229;BME280;74448;49.082;9.152;2023-12-07T06:35:51;99808.03;;;3.22;63.47
78229;BME280;74448;49.082;9.152;2023-12-07T06:38:18;99820.00;;;3.28;63.76
78229;BME280;74448;49.082;9.152;2023-12-07T06:40:48;99822.72;;;3.24;63.64
78229;BME280;74448;49.082;9.152;2023-12-07T06:43:15;99818.34;;;3.25;63.65
78229;BME280;74448;49.082;9.152;2023-12-07T06:45:42;99820.09;;;3.24;63.92
78229;BME280;74448;49.082;9.152;2023-12-07T06:48:09;99815.72;;;3.25;64.01
78229;BME280;74448;49.082;9.152;2023-12-07T06:50:36;99822.81;;;3.21;63.64
78229;BME280;74448;49.082;9.152;2023-12-07T06:53:02;99832.25;;;3.25;63.72
78229;BME280;74448;49.082;9.152;2023-12-07T06:55:29;99828.13;;;3.20;63.52
78229;BME280;74448;49.082;9.152;2023-12-07T06:57:55;99834.09;;;3.23;63.99
78229;BME280;74448;49.082;9.152;2023-12-07T07:00:22;99834.19;;;3.20;63.11
78229;BME280;74448;49.082;9.152;2023-12-07T07:02:51;99837.66;;;3.21;63.79
78229;BME280;74448;49.082;9.152;2023-12-07T07:05:17;99831.66;;;3.19;63.76
78229;BME280;74448;49.082;9.152;2023-12-07T07:07:44;99827.28;;;3.19;63.57
78229;BME280;74448;49.082;9.152;2023-12-07T07:10:10;99838.50;;;3.21;63.95
78229;BME280;74448;49.082;9.152;2023-12-07T07:12:39;99836.75;;;3.22;63.46
78229;BME280;74448;49.082;9.152;2023-12-07T07:15:07;99835.19;;;3.18;63.37
78229;BME280;74448;49.082;9.152;2023-12-07T07:17:35;99837.63;;;3.22;63.43
78229;BME280;74448;49.082;9.152;2023-12-07T07:20:01;99833.41;;;3.18;63.81
78229;BME280;74448;49.082;9.152;2023-12-07T07:22:28;99845.47;;;3.21;63.78
78229;BME280;74448;49.082;9.152;2023-12-07T07:24:54;99841.19;;;3.20;63.89
78229;BME280;74448;49.082;9.152;2023-12-07T07:27:21;99837.78;;;3.18;63.88
78229;BME280;74448;49.082;9.152;2023-12-07T07:29:48;99827.44;;;3.15;63.53
78229;BME280;74448;49.082;9.152;2023-12-07T07:32:14;99831.75;;;3.16;63.44
78229;BME280;74448;49.082;9.152;2023-12-07T07:34:42;99824.94;;;3.12;63.59
78229;BME280;74448;49.082;9.152;2023-12-07T07:37:09;99828.47;;;3.11;63.44
78229;BME280;74448;49.082;9.152;2023-12-07T07:39:36;99827.50;;;3.13;63.60
78229;BME280;74448;49.082;9.152;2023-12-07T07:42:02;99830.16;;;3.12;63.16
78229;BME280;74448;49.082;9.152;2023-12-07T07:44:29;99845.72;;;3.15;63.88
78229;BME280;74448;49.082;9.152;2023-12-07T07:46:56;99847.44;;;3.16;63.47
78229;BME280;74448;49.082;9.152;2023-12-07T07:49:23;99852.72;;;3.14;63.89
78229;BME280;74448;49.082;9.152;2023-12-07T07:51:50;99845.84;;;3.12;63.38
78229;BME280;74448;49.082;9.152;2023-12-07T07:54:17;99855.50;;;3.10;63.87
78229;BME280;74448;49.082;9.152;2023-12-07T07:56:44;99853.75;;;3.10;63.90
78229;BME280;74448;49.082;9.152;2023-12-07T07:59:10;99858.22;;;3.07;63.62
78229;BME280;74448;49.082;9.152;2023-12-07T08:01:37;99859.75;;;3.12;63.75
78229;BME280;74448;49.082;9.152;2023-12-07T08:04:04;99855.63;;;3.07;63.68
78229;BME280;74448;49.082;9.152;2023-12-07T08:06:31;99858.13;;;3.10;64.02
78229;BME280;74448;49.082;9.152;2023-12-07T08:09:02;99854.69;;;3.08;63.61
78229;BME280;74448;49.082;9.152;2023-12-07T08:11:28;99864.28;;;3.07;64.07
78229;BME280;74448;49.082;9.152;2023-12-07T08:13:55;99863.56;;;3.04;63.96
78229;BME280;74448;49.082;9.152;2023-12-07T08:16:22;99874.84;;;3.04;64.14
78229;BME280;74448;49.082;9.152;2023-12-07T08:18:48;99866.84;;;3.09;63.59
78229;BME280;74448;49.082;9.152;2023-12-07T08:21:23;99859.16;;;3.06;64.14
78229;BME280;74448;49.082;9.152;2023-12-07T08:23:55;99844.50;;;3.02;63.62
78229;BME280;74448;49.082;9.152;2023-12-07T08:26:22;99863.44;;;3.07;63.73
78229;BME280;74448;49.082;9.152;2023-12-07T08:28:49;99860.84;;;3.07;64.06
78229;BME280;74448;49.082;9.152;2023-12-07T08:31:16;99858.25;;;3.05;63.60
78229;BME280;74448;49.082;9.152;2023-12-07T08:33:44;99856.75;;;2.99;63.70
78229;BME280;74448;49.082;9.152;2023-12-07T08:36:10;99866.97;;;3.06;63.50
78229;BME280;74448;49.082;9.152;2023-12-07T08:38:37;99865.25;;;3.05;63.53
78229;BME280;74448;49.082;9.152;2023-12-07T08:41:04;99852.34;;;3.02;64.00
78229;BME280;74448;49.082;9.152;2023-12-07T08:43:30;99848.16;;;2.96;63.60
78229;BME280;74448;49.082;9.152;2023-12-07T08:45:57;99859.19;;;3.04;64.07
78229;BME280;74448;49.082;9.152;2023-12-07T08:48:28;99844.59;;;2.98;63.58
78229;BME280;74448;49.082;9.152;2023-12-07T08:50:55;99840.34;;;2.96;63.47
78229;BME280;74448;49.082;9.152;2023-12-07T08:53:21;99834.53;;;2.88;63.68
78229;BME280;74448;49.082;9.152;2023-12-07T08:55:48;99838.72;;;2.93;63.45
78229;BME280;74448;49.082;9.152;2023-12-07T08:58:15;99830.16;;;2.88;63.49
78229;BME280;74448;49.082;9.152;2023-12-07T09:00:41;99850.59;;;3.00;64.17
78229;BME280;74448;49.082;9.152;2023-12-07T09:03:08;99836.84;;;2.97;63.71
78229;BME280;74448;49.082;9.152;2023-12-07T09:05:35;99824.81;;;2.93;64.06
78229;BME280;74448;49.082;9.152;2023-12-07T09:08:01;99834.09;;;3.00;63.75
78229;BME280;74448;49.082;9.152;2023-12-07T09:10:28;99834.22;;;2.97;63.96
78229;BME280;74448;49.082;9.152;2023-12-07T09:12:55;99805.97;;;2.85;63.72
78229;BME280;74448;49.082;9.152;2023-12-07T09:15:21;99828.94;;;2.98;64.04
78229;BME280;74448;49.082;9.152;2023-12-07T09:17:48;99819.50;;;2.94;64.21
78229;BME280;74448;49.082;9.152;2023-12-07T09:20:17;99799.00;;;2.84;63.72
78229;BME280;74448;49.082;9.152;2023-12-07T09:22:45;99816.91;;;2.94;64.05
78229;BME280;74448;49.082;9.152;2023-12-07T09:25:13;99828.13;;;2.96;63.77
78229;BME280;74448;49.082;9.152;2023-12-07T09:27:41;99826.50;;;2.94;63.61
78229;BME280;74448;49.082;9.152;2023-12-07T09:30:09;99824.63;;;2.97;63.79
78229;BME280;74448;49.082;9.152;2023-12-07T09:32:39;99815.22;;;2.93;63.69
78229;BME280;74448;49.082;9.152;2023-12-07T09:35:07;99814.22;;;2.96;63.66
78229;BME280;74448;49.082;9.152;2023-12-07T09:37:34;99812.72;;;2.90;63.97
78229;BME280;74448;49.082;9.152;2023-12-07T09:40:01;99809.00;;;2.96;63.74
78229;BME280;74448;49.082;9.152;2023-12-07T09:42:28;99799.66;;;2.90;63.68
78229;BME280;74448;49.082;9.152;2023-12-07T09:45:02;99792.16;;;2.81;63.56
78229;BME280;74448;49.082;9.152;2023-12-07T09:47:30;99808.34;;;2.91;63.83
78229;BME280;74448;49.082;9.152;2023-12-07T09:50:05;99791.34;;;2.79;63.70
78229;BME280;74448;49.082;9.152;2023-12-07T09:52:32;99808.25;;;2.92;63.86
78229;BME280;74448;49.082;9.152;2023-12-07T09:54:59;99812.53;;;2.95;63.84
78229;BME280;74448;49.082;9.152;2023-12-07T09:57:27;99816.91;;;2.94;63.68
78229;BME280;74448;49.082;9.152;2023-12-07T09:59:57;99800.69;;;2.86;63.87
78229;BME280;74448;49.082;9.152;2023-12-07T10:02:24;99810.75;;;2.95;63.72
78229;BME280;74448;49.082;9.152;2023-12-07T10:05:11;99805.53;;;2.95;63.65
78229;BME280;74448;49.082;9.152;2023-12-07T10:07:40;99791.75;;;2.92;63.91
78229;BME280;74448;49.082;9.152;2023-12-07T10:10:08;99791.75;;;2.92;63.40
78229;BME280;74448;49.082;9.152;2023-12-07T10:15:14;99778.28;;;2.81;63.36
78229;BME280;74448;49.082;9.152;2023-12-07T10:17:50;99780.34;;;2.94;63.70
78229;BME280;74448;49.082;9.152;2023-12-07T10:20:18;99758.22;;;2.81;63.79
78229;BME280;74448;49.082;9.152;2023-12-07T10:22:46;99772.53;;;2.94;63.94
78229;BME280;74448;49.082;9.152;2023-12-07T10:25:13;99765.63;;;2.92;64.05
78229;BME280;74448;49.082;9.152;2023-12-07T10:27:41;99771.59;;;2.95;63.97
78229;BME280;74448;49.082;9.152;2023-12-07T10:30:09;99767.41;;;2.91;63.77
78229;BME280;74448;49.082;9.152;2023-12-07T10:32:38;99770.69;;;2.96;63.73
78229;BME280;74448;49.082;9.152;2023-12-07T10:35:07;99764.69;;;2.94;63.33
78229;BME280;74448;49.082;9.152;2023-12-07T10:37:34;99763.75;;;2.95;63.46
78229;BME280;74448;49.082;9.152;2023-12-07T10:40:02;99764.56;;;2.97;63.87
78229;BME280;74448;49.082;9.152;2023-12-07T10:42:32;99759.34;;;2.97;63.52
78229;BME280;74448;49.082;9.152;2023-12-07T10:45:05;99759.47;;;2.94;63.83
78229;BME280;74448;49.082;9.152;2023-12-07T10:47:39;99750.59;;;2.98;63.77
78229;BME280;74448;49.082;9.152;2023-12-07T10:50:07;99748.84;;;2.99;63.81
78229;BME280;74448;49.082;9.152;2023-12-07T10:52:44;99756.59;;;3.00;63.51
78229;BME280;74448;49.082;9.152;2023-12-07T10:55:16;99760.03;;;3.03;63.31
78229;BME280;74448;49.082;9.152;2023-12-07T10:57:46;99749.66;;;3.01;63.76
78229;BME280;74448;49.082;9.152;2023-12-07T11:00:13;99739.34;;;2.96;63.57
78229;BME280;74448;49.082;9.152;2023-12-07T11:02:41;99750.34;;;3.05;63.22
78229;BME280;74448;49.082;9.152;2023-12-07T11:05:09;99729.66;;;3.00;63.17
78229;BME280;74448;49.082;9.152;2023-12-07T11:07:50;99716.88;;;2.92;63.81
78229;BME280;74448;49.082;9.152;2023-12-07T11:10:23;99727.66;;;3.07;63.17
78229;BME280;74448;49.082;9.152;2023-12-07T11:15:43;99708.44;;;3.08;63.33
78229;BME280;74448;49.082;9.152;2023-12-07T11:18:10;99704.03;;;3.10;63.06
78229;BME280;74448;49.082;9.152;2023-12-07T11:20:45;99697.94;;;3.09;63.29
78229;BME280;74448;49.082;9.152;2023-12-07T11:23:18;99689.97;;;3.12;63.26
78229;BME280;74448;49.082;9.152;2023-12-07T11:25:51;99681.22;;;3.13;63.67
78229;BME280;74448;49.082;9.152;2023-12-07T11:28:18;99679.53;;;3.12;63.35
78229;BME280;74448;49.082;9.152;2023-12-07T11:30:45;99673.47;;;3.12;62.99
78229;BME280;74448;49.082;9.152;2023-12-07T11:33:14;99676.75;;;3.17;63.44
78229;BME280;74448;49.082;9.152;2023-12-07T11:38:26;99665.41;;;3.18;62.75
78229;BME280;74448;49.082;9.152;2023-12-07T11:40:54;99659.13;;;3.22;62.98
78229;BME280;74448;49.082;9.152;2023-12-07T11:46:07;99648.53;;;3.25;62.96
78229;BME280;74448;49.082;9.152;2023-12-07T11:48:34;99641.63;;;3.24;63.13
78229;BME280;74448;49.082;9.152;2023-12-07T11:53:29;99636.13;;;3.30;62.97
78229;BME280;74448;49.082;9.152;2023-12-07T11:56:03;99623.03;;;3.32;62.64
78229;BME280;74448;49.082;9.152;2023-12-07T11:58:32;99626.47;;;3.32;62.71
78229;BME280;74448;49.082;9.152;2023-12-07T12:01:03;99628.13;;;3.35;62.93
78229;BME280;74448;49.082;9.152;2023-12-07T12:03:31;99622.03;;;3.34;62.80
78229;BME280;74448;49.082;9.152;2023-12-07T12:06:04;99624.31;;;3.42;62.90
78229;BME280;74448;49.082;9.152;2023-12-07T12:08:31;99614.72;;;3.42;63.06
78229;BME280;74448;49.082;9.152;2023-12-07T12:10:58;99605.13;;;3.43;63.08
78229;BME280;74448;49.082;9.152;2023-12-07T12:13:37;99604.09;;;3.47;63.14
78229;BME280;74448;49.082;9.152;2023-12-07T12:16:05;99598.78;;;3.48;63.00
78229;BME280;74448;49.082;9.152;2023-12-07T12:18:33;99602.13;;;3.52;63.29
78229;BME280;74448;49.082;9.152;2023-12-07T12:21:01;99588.22;;;3.52;63.15
78229;BME280;74448;49.082;9.152;2023-12-07T12:23:28;99575.78;;;3.57;63.05
78229;BME280;74448;49.082;9.152;2023-12-07T12:25:56;99573.19;;;3.57;63.59
78229;BME280;74448;49.082;9.152;2023-12-07T12:28:22;99573.81;;;3.62;63.58
78229;BME280;74448;49.082;9.152;2023-12-07T12:30:50;99575.50;;;3.63;63.16
78229;BME280;74448;49.082;9.152;2023-12-07T12:33:18;99564.19;;;3.62;63.13
78229;BME280;74448;49.082;9.152;2023-12-07T12:35:45;99578.63;;;3.71;63.05
78229;BME280;74448;49.082;9.152;2023-12-07T12:38:12;99564.63;;;3.72;62.91
78229;BME280;74448;49.082;9.152;2023-12-07T12:40:52;99563.66;;;3.74;62.75
78229;BME280;74448;49.082;9.152;2023-12-07T12:43:20;99553.13;;;3.76;62.66
78229;BME280;74448;49.082;9.152;2023-12-07T12:45:48;99539.28;;;3.74;62.65
78229;BME280;74448;49.082;9.152;2023-12-07T12:48:31;99538.16;;;3.80;62.46
78229;BME280;74448;49.082;9.152;2023-12-07T12:51:07;99537.94;;;3.84;62.68
78229;BME280;74448;49.082;9.152;2023-12-07T12:53:34;99529.19;;;3.85;62.60
78229;BME280;74448;49.082;9.152;2023-12-07T12:56:00;99517.59;;;3.91;62.54
78229;BME280;74448;49.082;9.152;2023-12-07T12:58:27;99518.66;;;3.87;62.46
78229;BME280;74448;49.082;9.152;2023-12-07T13:00:54;99517.69;;;3.89;62.32
78229;BME280;74448;49.082;9.152;2023-12-07T13:03:21;99525.09;;;3.98;62.24
78229;BME280;74448;49.082;9.152;2023-12-07T13:05:47;99506.38;;;3.89;62.37
78229;BME280;74448;49.082;9.152;2023-12-07T13:08:15;99521.41;;;4.03;61.86
78229;BME280;74448;49.082;9.152;2023-12-07T13:10:42;99495.69;;;3.93;62.21
78229;BME280;74448;49.082;9.152;2023-12-07T13:13:08;99515.88;;;4.09;61.97
78229;BME280;74448;49.082;9.152;2023-12-07T13:15:35;99493.72;;;3.98;61.73
78229;BME280;74448;49.082;9.152;2023-12-07T13:18:02;99508.66;;;4.14;61.63
78229;BME280;74448;49.082;9.152;2023-12-07T13:20:34;99518.84;;;4.20;61.72
78229;BME280;74448;49.082;9.152;2023-12-07T13:23:19;99517.16;;;4.19;62.05
78229;BME280;74448;49.082;9.152;2023-12-07T13:25:47;99496.69;;;4.10;61.86
78229;BME280;74448;49.082;9.152;2023-12-07T13:28:14;99510.66;;;4.28;61.49